Terminal Aerodrome Forecast
Issued by NWS Charleston, SC

Home | Current Version | Previous Version | Text Only | Print | Product List | Glossary On
Versions: 1 2 3 4 5 6 7 8 9 10 11 12
000
FTUS42 KCHS 111139
TAFSAV
TAF
KSAV 111139Z 1112/1212 05005KT P6SM SCT035
     FM111600 09007KT P6SM BKN035
     FM120200 12003KT P6SM SCT015 BKN035
     FM120700 VRB02KT 4SM BR SCT003 BKN012=

USA.gov is the U.S. government's official web portal to all federal, state and local government web resources and services.